sensor_id;sensor_type;location;lat;lon;timestamp;P1;durP1;ratioP1;P2;durP2;ratioP2
12418;SDS011;6273;52.312;9.178;2022-07-09T00:00:05;4.80;;;3.17;;
12418;SDS011;6273;52.312;9.178;2022-07-09T00:02:32;3.47;;;2.67;;
12418;SDS011;6273;52.312;9.178;2022-07-09T00:04:59;6.90;;;3.13;;
12418;SDS011;6273;52.312;9.178;2022-07-09T00:07:25;9.93;;;5.13;;
12418;SDS011;6273;52.312;9.178;2022-07-09T00:09:51;5.33;;;3.60;;
12418;SDS011;6273;52.312;9.178;2022-07-09T00:12:17;3.90;;;3.00;;
12418;SDS011;6273;52.312;9.178;2022-07-09T00:14:43;4.70;;;3.43;;
12418;SDS011;6273;52.312;9.178;2022-07-09T00:17:09;4.20;;;3.87;;
12418;SDS011;6273;52.312;9.178;2022-07-09T00:19:34;2.53;;;2.33;;
12418;SDS011;6273;52.312;9.178;2022-07-09T00:22:00;9.87;;;3.47;;
12418;SDS011;6273;52.312;9.178;2022-07-09T00:24:26;6.27;;;3.03;;
12418;SDS011;6273;52.312;9.178;2022-07-09T00:26:51;4.87;;;2.90;;
12418;SDS011;6273;52.312;9.178;2022-07-09T00:29:17;5.30;;;3.40;;
12418;SDS011;6273;52.312;9.178;2022-07-09T00:31:43;4.07;;;3.00;;
12418;SDS011;6273;52.312;9.178;2022-07-09T00:34:10;9.30;;;3.30;;
12418;SDS011;6273;52.312;9.178;2022-07-09T00:36:36;3.03;;;2.43;;
12418;SDS011;6273;52.312;9.178;2022-07-09T00:39:02;6.23;;;3.40;;
12418;SDS011;6273;52.312;9.178;2022-07-09T00:41:28;3.83;;;3.53;;
12418;SDS011;6273;52.312;9.178;2022-07-09T00:43:54;5.77;;;4.50;;
12418;SDS011;6273;52.312;9.178;2022-07-09T00:46:19;6.30;;;3.40;;
12418;SDS011;6273;52.312;9.178;2022-07-09T00:48:45;4.87;;;4.10;;
12418;SDS011;6273;52.312;9.178;2022-07-09T00:51:14;5.60;;;4.40;;
12418;SDS011;6273;52.312;9.178;2022-07-09T00:53:42;3.80;;;3.50;;
12418;SDS011;6273;52.312;9.178;2022-07-09T00:56:10;4.53;;;4.13;;
12418;SDS011;6273;52.312;9.178;2022-07-09T00:58:37;4.37;;;3.97;;
12418;SDS011;6273;52.312;9.178;2022-07-09T01:01:03;3.77;;;3.57;;
12418;SDS011;6273;52.312;9.178;2022-07-09T01:03:31;10.47;;;4.90;;
12418;SDS011;6273;52.312;9.178;2022-07-09T01:05:56;4.80;;;3.53;;
12418;SDS011;6273;52.312;9.178;2022-07-09T01:08:22;9.03;;;4.40;;
12418;SDS011;6273;52.312;9.178;2022-07-09T01:10:50;4.83;;;4.33;;
12418;SDS011;6273;52.312;9.178;2022-07-09T01:13:16;5.43;;;4.10;;
12418;SDS011;6273;52.312;9.178;2022-07-09T01:15:42;5.90;;;4.90;;
12418;SDS011;6273;52.312;9.178;2022-07-09T01:18:11;4.90;;;4.50;;
12418;SDS011;6273;52.312;9.178;2022-07-09T01:20:37;5.27;;;3.97;;
12418;SDS011;6273;52.312;9.178;2022-07-09T01:23:03;6.27;;;4.43;;
12418;SDS011;6273;52.312;9.178;2022-07-09T01:25:34;5.20;;;4.70;;
12418;SDS011;6273;52.312;9.178;2022-07-09T01:28:03;5.40;;;4.40;;
12418;SDS011;6273;52.312;9.178;2022-07-09T01:30:33;5.67;;;3.77;;
12418;SDS011;6273;52.312;9.178;2022-07-09T01:33:00;5.60;;;5.07;;
12418;SDS011;6273;52.312;9.178;2022-07-09T01:35:26;5.77;;;4.37;;
12418;SDS011;6273;52.312;9.178;2022-07-09T01:37:52;8.40;;;3.90;;
12418;SDS011;6273;52.312;9.178;2022-07-09T01:40:19;6.67;;;4.40;;
12418;SDS011;6273;52.312;9.178;2022-07-09T01:42:44;9.60;;;5.13;;
12418;SDS011;6273;52.312;9.178;2022-07-09T01:45:11;6.90;;;4.53;;
12418;SDS011;6273;52.312;9.178;2022-07-09T01:47:36;5.33;;;4.83;;
12418;SDS011;6273;52.312;9.178;2022-07-09T01:50:02;5.23;;;4.60;;
12418;SDS011;6273;52.312;9.178;2022-07-09T01:52:29;14.50;;;4.90;;
12418;SDS011;6273;52.312;9.178;2022-07-09T01:54:54;5.27;;;4.17;;
12418;SDS011;6273;52.312;9.178;2022-07-09T01:57:20;8.60;;;4.20;;
12418;SDS011;6273;52.312;9.178;2022-07-09T01:59:45;20.57;;;4.80;;
12418;SDS011;6273;52.312;9.178;2022-07-09T02:02:11;7.53;;;4.80;;
12418;SDS011;6273;52.312;9.178;2022-07-09T02:04:37;5.77;;;4.87;;
12418;SDS011;6273;52.312;9.178;2022-07-09T02:07:03;6.50;;;5.20;;
12418;SDS011;6273;52.312;9.178;2022-07-09T02:09:29;12.27;;;4.50;;
12418;SDS011;6273;52.312;9.178;2022-07-09T02:11:54;12.40;;;4.83;;
12418;SDS011;6273;52.312;9.178;2022-07-09T02:14:21;17.13;;;4.70;;
12418;SDS011;6273;52.312;9.178;2022-07-09T02:16:46;10.60;;;6.47;;
12418;SDS011;6273;52.312;9.178;2022-07-09T02:19:12;6.63;;;5.10;;
12418;SDS011;6273;52.312;9.178;2022-07-09T02:21:38;12.13;;;5.07;;
12418;SDS011;6273;52.312;9.178;2022-07-09T02:24:05;13.00;;;4.60;;
12418;SDS011;6273;52.312;9.178;2022-07-09T02:26:31;13.43;;;6.50;;
12418;SDS011;6273;52.312;9.178;2022-07-09T02:28:56;11.77;;;5.20;;
12418;SDS011;6273;52.312;9.178;2022-07-09T02:31:22;8.00;;;5.30;;
12418;SDS011;6273;52.312;9.178;2022-07-09T02:33:48;4.47;;;4.07;;
12418;SDS011;6273;52.312;9.178;2022-07-09T02:36:13;7.73;;;6.03;;
12418;SDS011;6273;52.312;9.178;2022-07-09T02:38:39;7.17;;;6.50;;
12418;SDS011;6273;52.312;9.178;2022-07-09T02:41:05;17.13;;;6.37;;
12418;SDS011;6273;52.312;9.178;2022-07-09T02:43:30;8.83;;;6.40;;
12418;SDS011;6273;52.312;9.178;2022-07-09T02:45:56;6.83;;;6.13;;
12418;SDS011;6273;52.312;9.178;2022-07-09T02:48:22;9.87;;;6.00;;
12418;SDS011;6273;52.312;9.178;2022-07-09T02:50:51;6.37;;;5.77;;
12418;SDS011;6273;52.312;9.178;2022-07-09T02:53:17;7.60;;;5.97;;
12418;SDS011;6273;52.312;9.178;2022-07-09T02:55:43;9.83;;;6.60;;
12418;SDS011;6273;52.312;9.178;2022-07-09T02:58:09;14.93;;;7.10;;
12418;SDS011;6273;52.312;9.178;2022-07-09T03:00:35;7.00;;;5.53;;
12418;SDS011;6273;52.312;9.178;2022-07-09T03:03:01;8.07;;;6.60;;
12418;SDS011;6273;52.312;9.178;2022-07-09T03:05:27;10.23;;;6.37;;
12418;SDS011;6273;52.312;9.178;2022-07-09T03:07:53;13.97;;;6.43;;
12418;SDS011;6273;52.312;9.178;2022-07-09T03:10:18;16.17;;;7.70;;
12418;SDS011;6273;52.312;9.178;2022-07-09T03:12:44;7.10;;;6.43;;
12418;SDS011;6273;52.312;9.178;2022-07-09T03:15:10;10.20;;;6.87;;
12418;SDS011;6273;52.312;9.178;2022-07-09T03:17:38;11.23;;;6.47;;
12418;SDS011;6273;52.312;9.178;2022-07-09T03:20:03;11.23;;;6.50;;
12418;SDS011;6273;52.312;9.178;2022-07-09T03:22:30;13.67;;;7.27;;
12418;SDS011;6273;52.312;9.178;2022-07-09T03:24:55;12.43;;;6.67;;
12418;SDS011;6273;52.312;9.178;2022-07-09T03:27:21;10.40;;;6.53;;
12418;SDS011;6273;52.312;9.178;2022-07-09T03:29:47;13.60;;;6.53;;
12418;SDS011;6273;52.312;9.178;2022-07-09T03:32:12;9.33;;;6.97;;
12418;SDS011;6273;52.312;9.178;2022-07-09T03:34:38;10.70;;;6.57;;
12418;SDS011;6273;52.312;9.178;2022-07-09T03:37:04;10.03;;;6.10;;
12418;SDS011;6273;52.312;9.178;2022-07-09T03:39:30;11.40;;;5.57;;
12418;SDS011;6273;52.312;9.178;2022-07-09T03:41:56;16.63;;;5.93;;
12418;SDS011;6273;52.312;9.178;2022-07-09T03:44:21;10.37;;;6.47;;
12418;SDS011;6273;52.312;9.178;2022-07-09T03:46:47;16.27;;;6.67;;
12418;SDS011;6273;52.312;9.178;2022-07-09T03:49:13;9.23;;;6.13;;
12418;SDS011;6273;52.312;9.178;2022-07-09T03:51:38;7.53;;;6.63;;
12418;SDS011;6273;52.312;9.178;2022-07-09T03:54:04;14.33;;;6.33;;
12418;SDS011;6273;52.312;9.178;2022-07-09T03:56:29;7.20;;;6.33;;
12418;SDS011;6273;52.312;9.178;2022-07-09T03:58:55;6.50;;;5.47;;
12418;SDS011;6273;52.312;9.178;2022-07-09T04:01:21;9.30;;;7.00;;
12418;SDS011;6273;52.312;9.178;2022-07-09T04:03:46;12.93;;;8.33;;
12418;SDS011;6273;52.312;9.178;2022-07-09T04:06:12;8.93;;;6.37;;
12418;SDS011;6273;52.312;9.178;2022-07-09T04:08:37;9.20;;;7.70;;
12418;SDS011;6273;52.312;9.178;2022-07-09T04:11:03;13.50;;;7.23;;
12418;SDS011;6273;52.312;9.178;2022-07-09T04:13:29;19.07;;;7.67;;
12418;SDS011;6273;52.312;9.178;2022-07-09T04:15:54;9.27;;;7.13;;
12418;SDS011;6273;52.312;9.178;2022-07-09T04:18:20;18.30;;;8.50;;
12418;SDS011;6273;52.312;9.178;2022-07-09T04:20:45;11.37;;;7.10;;
12418;SDS011;6273;52.312;9.178;2022-07-09T04:23:12;13.80;;;6.83;;
12418;SDS011;6273;52.312;9.178;2022-07-09T04:25:37;17.47;;;7.67;;
12418;SDS011;6273;52.312;9.178;2022-07-09T04:28:03;12.53;;;6.27;;
12418;SDS011;6273;52.312;9.178;2022-07-09T04:30:30;16.87;;;8.20;;
12418;SDS011;6273;52.312;9.178;2022-07-09T04:32:56;11.90;;;7.33;;
12418;SDS011;6273;52.312;9.178;2022-07-09T04:35:22;10.83;;;7.90;;
12418;SDS011;6273;52.312;9.178;2022-07-09T04:37:48;11.00;;;7.53;;
12418;SDS011;6273;52.312;9.178;2022-07-09T04:40:13;8.90;;;7.27;;
12418;SDS011;6273;52.312;9.178;2022-07-09T04:42:39;16.10;;;7.50;;
12418;SDS011;6273;52.312;9.178;2022-07-09T04:45:05;18.47;;;7.97;;
12418;SDS011;6273;52.312;9.178;2022-07-09T04:47:31;13.43;;;6.57;;
12418;SDS011;6273;52.312;9.178;2022-07-09T04:49:57;7.77;;;5.90;;
12418;SDS011;6273;52.312;9.178;2022-07-09T04:52:23;6.93;;;6.10;;
12418;SDS011;6273;52.312;9.178;2022-07-09T04:54:51;16.47;;;7.27;;
12418;SDS011;6273;52.312;9.178;2022-07-09T04:57:19;7.90;;;6.30;;
12418;SDS011;6273;52.312;9.178;2022-07-09T04:59:44;7.77;;;7.03;;
12418;SDS011;6273;52.312;9.178;2022-07-09T05:02:10;10.90;;;5.60;;
12418;SDS011;6273;52.312;9.178;2022-07-09T05:04:35;9.63;;;6.37;;
12418;SDS011;6273;52.312;9.178;2022-07-09T05:07:01;13.40;;;6.90;;
12418;SDS011;6273;52.312;9.178;2022-07-09T05:09:27;7.03;;;6.07;;
12418;SDS011;6273;52.312;9.178;2022-07-09T05:11:52;7.57;;;6.83;;
12418;SDS011;6273;52.312;9.178;2022-07-09T05:14:19;14.33;;;6.57;;
12418;SDS011;6273;52.312;9.178;2022-07-09T05:16:45;10.73;;;5.67;;
12418;SDS011;6273;52.312;9.178;2022-07-09T05:19:11;9.17;;;7.17;;
12418;SDS011;6273;52.312;9.178;2022-07-09T05:21:38;10.73;;;6.03;;
12418;SDS011;6273;52.312;9.178;2022-07-09T05:24:07;13.33;;;6.37;;
12418;SDS011;6273;52.312;9.178;2022-07-09T05:26:33;9.97;;;6.03;;
12418;SDS011;6273;52.312;9.178;2022-07-09T05:28:59;8.70;;;6.60;;
12418;SDS011;6273;52.312;9.178;2022-07-09T05:31:25;10.50;;;5.87;;
12418;SDS011;6273;52.312;9.178;2022-07-09T05:33:51;7.50;;;5.67;;
12418;SDS011;6273;52.312;9.178;2022-07-09T05:36:17;10.97;;;5.67;;
12418;SDS011;6273;52.312;9.178;2022-07-09T05:38:43;10.53;;;5.63;;
12418;SDS011;6273;52.312;9.178;2022-07-09T05:41:09;10.57;;;5.73;;
12418;SDS011;6273;52.312;9.178;2022-07-09T05:43:35;8.30;;;5.53;;
12418;SDS011;6273;52.312;9.178;2022-07-09T05:46:01;6.40;;;5.80;;
12418;SDS011;6273;52.312;9.178;2022-07-09T05:48:27;7.47;;;5.80;;
12418;SDS011;6273;52.312;9.178;2022-07-09T05:50:53;7.23;;;4.73;;
12418;SDS011;6273;52.312;9.178;2022-07-09T05:53:19;5.13;;;4.17;;
12418;SDS011;6273;52.312;9.178;2022-07-09T05:55:45;15.57;;;5.03;;
12418;SDS011;6273;52.312;9.178;2022-07-09T05:58:11;10.43;;;6.20;;
12418;SDS011;6273;52.312;9.178;2022-07-09T06:00:37;6.23;;;4.30;;
12418;SDS011;6273;52.312;9.178;2022-07-09T06:03:03;13.00;;;4.83;;
12418;SDS011;6273;52.312;9.178;2022-07-09T06:05:29;13.40;;;5.60;;
12418;SDS011;6273;52.312;9.178;2022-07-09T06:07:55;10.00;;;4.67;;
12418;SDS011;6273;52.312;9.178;2022-07-09T06:10:21;9.60;;;4.90;;
12418;SDS011;6273;52.312;9.178;2022-07-09T06:12:47;7.43;;;4.47;;
12418;SDS011;6273;52.312;9.178;2022-07-09T06:15:13;6.50;;;4.97;;
12418;SDS011;6273;52.312;9.178;2022-07-09T06:17:39;6.50;;;3.83;;
12418;SDS011;6273;52.312;9.178;2022-07-09T06:20:05;4.03;;;3.73;;
12418;SDS011;6273;52.312;9.178;2022-07-09T06:22:31;7.40;;;4.47;;
12418;SDS011;6273;52.312;9.178;2022-07-09T06:24:57;7.73;;;3.90;;
12418;SDS011;6273;52.312;9.178;2022-07-09T06:27:22;14.23;;;4.67;;
12418;SDS011;6273;52.312;9.178;2022-07-09T06:29:48;7.33;;;4.57;;
12418;SDS011;6273;52.312;9.178;2022-07-09T06:32:14;6.37;;;5.47;;
12418;SDS011;6273;52.312;9.178;2022-07-09T06:34:39;10.27;;;5.00;;
12418;SDS011;6273;52.312;9.178;2022-07-09T06:37:05;9.33;;;5.80;;
12418;SDS011;6273;52.312;9.178;2022-07-09T06:39:31;4.53;;;4.10;;
12418;SDS011;6273;52.312;9.178;2022-07-09T06:42:13;9.83;;;5.90;;
12418;SDS011;6273;52.312;9.178;2022-07-09T06:44:39;10.43;;;6.07;;
12418;SDS011;6273;52.312;9.178;2022-07-09T06:47:05;6.10;;;5.33;;
12418;SDS011;6273;52.312;9.178;2022-07-09T06:49:31;7.20;;;5.80;;
12418;SDS011;6273;52.312;9.178;2022-07-09T06:51:57;11.43;;;5.70;;
12418;SDS011;6273;52.312;9.178;2022-07-09T06:54:24;6.63;;;4.00;;
12418;SDS011;6273;52.312;9.178;2022-07-09T06:56:50;6.27;;;4.87;;
12418;SDS011;6273;52.312;9.178;2022-07-09T06:59:16;5.13;;;4.60;;
12418;SDS011;6273;52.312;9.178;2022-07-09T07:01:43;5.00;;;4.50;;
12418;SDS011;6273;52.312;9.178;2022-07-09T07:04:09;7.37;;;4.80;;
12418;SDS011;6273;52.312;9.178;2022-07-09T07:06:38;11.30;;;5.40;;
12418;SDS011;6273;52.312;9.178;2022-07-09T07:09:04;6.50;;;5.30;;
12418;SDS011;6273;52.312;9.178;2022-07-09T07:11:29;7.13;;;4.33;;
12418;SDS011;6273;52.312;9.178;2022-07-09T07:13:55;3.73;;;3.20;;
12418;SDS011;6273;52.312;9.178;2022-07-09T07:16:20;6.27;;;4.13;;
12418;SDS011;6273;52.312;9.178;2022-07-09T07:18:46;8.27;;;3.97;;
12418;SDS011;6273;52.312;9.178;2022-07-09T07:21:12;8.60;;;4.37;;
12418;SDS011;6273;52.312;9.178;2022-07-09T07:23:37;3.07;;;2.87;;
12418;SDS011;6273;52.312;9.178;2022-07-09T07:26:03;5.30;;;3.07;;
12418;SDS011;6273;52.312;9.178;2022-07-09T07:28:29;4.57;;;3.13;;
12418;SDS011;6273;52.312;9.178;2022-07-09T07:30:54;3.50;;;3.17;;
12418;SDS011;6273;52.312;9.178;2022-07-09T07:33:20;4.80;;;3.93;;
12418;SDS011;6273;52.312;9.178;2022-07-09T07:35:46;8.00;;;4.17;;
12418;SDS011;6273;52.312;9.178;2022-07-09T07:38:12;4.50;;;3.10;;
12418;SDS011;6273;52.312;9.178;2022-07-09T07:40:38;4.50;;;3.30;;
12418;SDS011;6273;52.312;9.178;2022-07-09T07:43:04;6.83;;;4.10;;
12418;SDS011;6273;52.312;9.178;2022-07-09T07:45:29;3.33;;;3.13;;
12418;SDS011;6273;52.312;9.178;2022-07-09T07:47:56;5.50;;;2.80;;
12418;SDS011;6273;52.312;9.178;2022-07-09T07:50:22;4.33;;;3.40;;
12418;SDS011;6273;52.312;9.178;2022-07-09T07:52:48;9.17;;;3.80;;
12418;SDS011;6273;52.312;9.178;2022-07-09T07:55:14;4.87;;;4.10;;
12418;SDS011;6273;52.312;9.178;2022-07-09T07:57:40;3.80;;;3.50;;
12418;SDS011;6273;52.312;9.178;2022-07-09T08:00:06;3.23;;;3.00;;
12418;SDS011;6273;52.312;9.178;2022-07-09T08:02:32;3.17;;;2.97;;
12418;SDS011;6273;52.312;9.178;2022-07-09T08:04:59;4.10;;;2.23;;
12418;SDS011;6273;52.312;9.178;2022-07-09T08:07:25;3.30;;;2.93;;
12418;SDS011;6273;52.312;9.178;2022-07-09T08:09:51;4.20;;;2.53;;
12418;SDS011;6273;52.312;9.178;2022-07-09T08:12:16;3.57;;;2.90;;
12418;SDS011;6273;52.312;9.178;2022-07-09T08:14:42;4.60;;;2.87;;
12418;SDS011;6273;52.312;9.178;2022-07-09T08:17:07;3.00;;;2.67;;
12418;SDS011;6273;52.312;9.178;2022-07-09T08:19:33;4.43;;;2.27;;
12418;SDS011;6273;52.312;9.178;2022-07-09T08:21:59;2.50;;;2.30;;
12418;SDS011;6273;52.312;9.178;2022-07-09T08:24:24;5.20;;;2.57;;
12418;SDS011;6273;52.312;9.178;2022-07-09T08:26:51;3.33;;;2.53;;
12418;SDS011;6273;52.312;9.178;2022-07-09T08:29:17;4.40;;;2.80;;
12418;SDS011;6273;52.312;9.178;2022-07-09T08:31:42;2.70;;;2.47;;
12418;SDS011;6273;52.312;9.178;2022-07-09T08:34:08;2.63;;;2.43;;
12418;SDS011;6273;52.312;9.178;2022-07-09T08:36:33;2.70;;;2.50;;
12418;SDS011;6273;52.312;9.178;2022-07-09T08:38:59;5.60;;;3.03;;
12418;SDS011;6273;52.312;9.178;2022-07-09T08:41:25;3.20;;;3.00;;
12418;SDS011;6273;52.312;9.178;2022-07-09T08:43:51;6.97;;;2.30;;
12418;SDS011;6273;52.312;9.178;2022-07-09T08:46:17;3.07;;;2.53;;
12418;SDS011;6273;52.312;9.178;2022-07-09T08:48:43;4.43;;;2.30;;
12418;SDS011;6273;52.312;9.178;2022-07-09T08:51:10;4.27;;;2.10;;
12418;SDS011;6273;52.312;9.178;2022-07-09T08:53:40;2.23;;;1.90;;
12418;SDS011;6273;52.312;9.178;2022-07-09T08:56:08;2.47;;;2.27;;
12418;SDS011;6273;52.312;9.178;2022-07-09T08:58:34;2.33;;;2.23;;
12418;SDS011;6273;52.312;9.178;2022-07-09T09:01:00;5.73;;;2.87;;
12418;SDS011;6273;52.312;9.178;2022-07-09T09:03:26;2.40;;;2.20;;
12418;SDS011;6273;52.312;9.178;2022-07-09T09:08:37;4.60;;;2.87;;
12418;SDS011;6273;52.312;9.178;2022-07-09T09:11:04;2.83;;;2.03;;
12418;SDS011;6273;52.312;9.178;2022-07-09T09:13:31;2.40;;;1.63;;
12418;SDS011;6273;52.312;9.178;2022-07-09T09:16:05;3.00;;;2.00;;
12418;SDS011;6273;52.312;9.178;2022-07-09T09:18:41;3.07;;;2.87;;
12418;SDS011;6273;52.312;9.178;2022-07-09T09:21:11;3.90;;;1.73;;
12418;SDS011;6273;52.312;9.178;2022-07-09T09:23:42;1.90;;;1.80;;
12418;SDS011;6273;52.312;9.178;2022-07-09T09:26:10;4.03;;;2.40;;
12418;SDS011;6273;52.312;9.178;2022-07-09T09:28:45;1.30;;;1.20;;
12418;SDS011;6273;52.312;9.178;2022-07-09T09:31:19;3.33;;;1.37;;
12418;SDS011;6273;52.312;9.178;2022-07-09T09:34:12;4.10;;;1.93;;
12418;SDS011;6273;52.312;9.178;2022-07-09T09:36:40;5.13;;;2.00;;
12418;SDS011;6273;52.312;9.178;2022-07-09T09:39:07;4.23;;;1.73;;
12418;SDS011;6273;52.312;9.178;2022-07-09T09:41:41;2.83;;;1.73;;
12418;SDS011;6273;52.312;9.178;2022-07-09T09:44:09;1.53;;;1.13;;
12418;SDS011;6273;52.312;9.178;2022-07-09T09:46:37;1.70;;;1.37;;
12418;SDS011;6273;52.312;9.178;2022-07-09T09:49:04;1.60;;;1.50;;
12418;SDS011;6273;52.312;9.178;2022-07-09T09:51:45;3.03;;;1.40;;
12418;SDS011;6273;52.312;9.178;2022-07-09T09:54:17;1.93;;;1.83;;
12418;SDS011;6273;52.312;9.178;2022-07-09T09:56:44;5.13;;;2.30;;
12418;SDS011;6273;52.312;9.178;2022-07-09T09:59:10;2.13;;;1.43;;
12418;SDS011;6273;52.312;9.178;2022-07-09T10:01:37;5.30;;;1.57;;
12418;SDS011;6273;52.312;9.178;2022-07-09T10:04:07;3.33;;;1.83;;
12418;SDS011;6273;52.312;9.178;2022-07-09T10:06:33;1.63;;;1.30;;
12418;SDS011;6273;52.312;9.178;2022-07-09T10:09:00;3.50;;;1.80;;
12418;SDS011;6273;52.312;9.178;2022-07-09T10:16:49;1.50;;;1.40;;
12418;SDS011;6273;52.312;9.178;2022-07-09T10:19:25;1.70;;;1.40;;
12418;SDS011;6273;52.312;9.178;2022-07-09T10:21:53;2.97;;;1.70;;
12418;SDS011;6273;52.312;9.178;2022-07-09T10:24:26;1.37;;;1.27;;
12418;SDS011;6273;52.312;9.178;2022-07-09T10:27:09;1.37;;;1.27;;
12418;SDS011;6273;52.312;9.178;2022-07-09T10:29:37;3.97;;;1.20;;
12418;SDS011;6273;52.312;9.178;2022-07-09T10:32:32;2.60;;;1.27;;
12418;SDS011;6273;52.312;9.178;2022-07-09T10:35:02;3.10;;;1.17;;
12418;SDS011;6273;52.312;9.178;2022-07-09T10:37:30;2.23;;;1.30;;
12418;SDS011;6273;52.312;9.178;2022-07-09T10:39:55;1.50;;;1.40;;
12418;SDS011;6273;52.312;9.178;2022-07-09T10:42:22;2.07;;;1.60;;
12418;SDS011;6273;52.312;9.178;2022-07-09T10:44:50;1.40;;;1.30;;
12418;SDS011;6273;52.312;9.178;2022-07-09T10:47:17;2.90;;;1.73;;
12418;SDS011;6273;52.312;9.178;2022-07-09T10:49:42;2.50;;;1.67;;
12418;SDS011;6273;52.312;9.178;2022-07-09T10:52:08;2.17;;;1.33;;
12418;SDS011;6273;52.312;9.178;2022-07-09T10:54:34;2.30;;;1.53;;
12418;SDS011;6273;52.312;9.178;2022-07-09T10:57:11;1.87;;;1.40;;
12418;SDS011;6273;52.312;9.178;2022-07-09T10:59:38;1.67;;;1.33;;
12418;SDS011;6273;52.312;9.178;2022-07-09T11:02:04;1.27;;;1.17;;
12418;SDS011;6273;52.312;9.178;2022-07-09T11:04:30;2.63;;;1.10;;
12418;SDS011;6273;52.312;9.178;2022-07-09T11:06:56;1.80;;;1.40;;
12418;SDS011;6273;52.312;9.178;2022-07-09T11:09:26;1.20;;;1.07;;
12418;SDS011;6273;52.312;9.178;2022-07-09T11:11:55;2.70;;;0.97;;
12418;SDS011;6273;52.312;9.178;2022-07-09T11:14:21;1.37;;;1.27;;
12418;SDS011;6273;52.312;9.178;2022-07-09T11:16:56;1.43;;;1.10;;
12418;SDS011;6273;52.312;9.178;2022-07-09T11:19:24;1.87;;;1.63;;
12418;SDS011;6273;52.312;9.178;2022-07-09T11:21:49;2.80;;;2.00;;
12418;SDS011;6273;52.312;9.178;2022-07-09T11:24:25;1.97;;;1.20;;
12418;SDS011;6273;52.312;9.178;2022-07-09T11:26:51;1.30;;;1.10;;
12418;SDS011;6273;52.312;9.178;2022-07-09T11:29:17;1.20;;;1.10;;
12418;SDS011;6273;52.312;9.178;2022-07-09T11:31:50;2.23;;;1.40;;
12418;SDS011;6273;52.312;9.178;2022-07-09T11:34:16;3.70;;;1.13;;
12418;SDS011;6273;52.312;9.178;2022-07-09T11:36:47;1.13;;;1.03;;
12418;SDS011;6273;52.312;9.178;2022-07-09T11:41:52;1.10;;;1.03;;
12418;SDS011;6273;52.312;9.178;2022-07-09T11:44:22;2.60;;;1.27;;
12418;SDS011;6273;52.312;9.178;2022-07-09T11:47:05;3.63;;;1.17;;
12418;SDS011;6273;52.312;9.178;2022-07-09T11:49:33;1.90;;;1.50;;
12418;SDS011;6273;52.312;9.178;2022-07-09T11:54:58;1.13;;;1.03;;
12418;SDS011;6273;52.312;9.178;2022-07-09T11:57:25;3.77;;;1.20;;
12418;SDS011;6273;52.312;9.178;2022-07-09T11:59:51;1.20;;;1.10;;
12418;SDS011;6273;52.312;9.178;2022-07-09T12:02:28;1.73;;;1.03;;
12418;SDS011;6273;52.312;9.178;2022-07-09T12:04:59;2.67;;;0.97;;
12418;SDS011;6273;52.312;9.178;2022-07-09T12:07:25;3.40;;;1.00;;
12418;SDS011;6273;52.312;9.178;2022-07-09T12:10:02;0.80;;;0.80;;
12418;SDS011;6273;52.312;9.178;2022-07-09T12:12:35;2.07;;;0.80;;
12418;SDS011;6273;52.312;9.178;2022-07-09T12:15:03;3.70;;;0.90;;
12418;SDS011;6273;52.312;9.178;2022-07-09T12:17:30;2.40;;;1.10;;
12418;SDS011;6273;52.312;9.178;2022-07-09T12:19:57;3.57;;;1.00;;
12418;SDS011;6273;52.312;9.178;2022-07-09T12:22:23;1.40;;;0.83;;
12418;SDS011;6273;52.312;9.178;2022-07-09T12:24:50;1.90;;;0.90;;
12418;SDS011;6273;52.312;9.178;2022-07-09T12:27:16;4.77;;;1.30;;
12418;SDS011;6273;52.312;9.178;2022-07-09T12:29:42;1.07;;;0.77;;
12418;SDS011;6273;52.312;9.178;2022-07-09T12:32:08;0.97;;;0.67;;
12418;SDS011;6273;52.312;9.178;2022-07-09T12:34:34;1.07;;;0.90;;
12418;SDS011;6273;52.312;9.178;2022-07-09T12:37:00;1.60;;;0.63;;
12418;SDS011;6273;52.312;9.178;2022-07-09T12:39:26;5.77;;;1.00;;
12418;SDS011;6273;52.312;9.178;2022-07-09T12:41:52;1.67;;;0.80;;
12418;SDS011;6273;52.312;9.178;2022-07-09T12:44:17;2.80;;;1.10;;
12418;SDS011;6273;52.312;9.178;2022-07-09T12:46:43;1.20;;;1.10;;
12418;SDS011;6273;52.312;9.178;2022-07-09T12:49:08;3.40;;;1.30;;
12418;SDS011;6273;52.312;9.178;2022-07-09T12:51:34;1.87;;;1.03;;
12418;SDS011;6273;52.312;9.178;2022-07-09T12:54:00;6.10;;;1.37;;
12418;SDS011;6273;52.312;9.178;2022-07-09T12:56:25;0.97;;;0.87;;
12418;SDS011;6273;52.312;9.178;2022-07-09T12:58:51;0.80;;;0.77;;
12418;SDS011;6273;52.312;9.178;2022-07-09T13:01:17;4.00;;;1.17;;
12418;SDS011;6273;52.312;9.178;2022-07-09T13:03:43;2.83;;;1.00;;
12418;SDS011;6273;52.312;9.178;2022-07-09T13:06:08;4.83;;;1.10;;
12418;SDS011;6273;52.312;9.178;2022-07-09T13:08:53;7.87;;;1.20;;
12418;SDS011;6273;52.312;9.178;2022-07-09T13:11:19;2.93;;;0.80;;
12418;SDS011;6273;52.312;9.178;2022-07-09T13:13:44;2.80;;;0.90;;
12418;SDS011;6273;52.312;9.178;2022-07-09T13:16:10;4.23;;;1.40;;
12418;SDS011;6273;52.312;9.178;2022-07-09T13:18:36;1.73;;;0.73;;
12418;SDS011;6273;52.312;9.178;2022-07-09T13:21:01;2.07;;;1.00;;
12418;SDS011;6273;52.312;9.178;2022-07-09T13:23:27;7.63;;;1.60;;
12418;SDS011;6273;52.312;9.178;2022-07-09T13:25:52;1.00;;;0.90;;
12418;SDS011;6273;52.312;9.178;2022-07-09T13:28:18;2.63;;;1.67;;
12418;SDS011;6273;52.312;9.178;2022-07-09T13:30:44;3.50;;;1.23;;
12418;SDS011;6273;52.312;9.178;2022-07-09T13:33:09;2.10;;;1.20;;
12418;SDS011;6273;52.312;9.178;2022-07-09T13:35:35;1.07;;;0.90;;
12418;SDS011;6273;52.312;9.178;2022-07-09T13:38:00;3.37;;;1.10;;
12418;SDS011;6273;52.312;9.178;2022-07-09T13:40:27;1.30;;;0.80;;
12418;SDS011;6273;52.312;9.178;2022-07-09T13:42:52;3.93;;;1.37;;
12418;SDS011;6273;52.312;9.178;2022-07-09T13:45:18;1.50;;;0.70;;
12418;SDS011;6273;52.312;9.178;2022-07-09T13:47:44;1.67;;;0.93;;
12418;SDS011;6273;52.312;9.178;2022-07-09T13:50:09;3.43;;;1.67;;
12418;SDS011;6273;52.312;9.178;2022-07-09T13:52:35;3.93;;;1.50;;
12418;SDS011;6273;52.312;9.178;2022-07-09T13:55:01;2.50;;;0.90;;
12418;SDS011;6273;52.312;9.178;2022-07-09T13:57:26;2.60;;;0.70;;
12418;SDS011;6273;52.312;9.178;2022-07-09T13:59:52;3.80;;;1.27;;
12418;SDS011;6273;52.312;9.178;2022-07-09T14:02:17;2.07;;;1.00;;
12418;SDS011;6273;52.312;9.178;2022-07-09T14:04:43;0.97;;;0.87;;
12418;SDS011;6273;52.312;9.178;2022-07-09T14:07:09;3.03;;;1.10;;
12418;SDS011;6273;52.312;9.178;2022-07-09T14:09:34;2.20;;;1.33;;
12418;SDS011;6273;52.312;9.178;2022-07-09T14:12:00;2.57;;;1.10;;
12418;SDS011;6273;52.312;9.178;2022-07-09T14:14:25;1.40;;;1.30;;
12418;SDS011;6273;52.312;9.178;2022-07-09T14:16:51;1.63;;;1.10;;
12418;SDS011;6273;52.312;9.178;2022-07-09T14:19:17;2.60;;;0.93;;
12418;SDS011;6273;52.312;9.178;2022-07-09T14:21:43;3.77;;;1.10;;
12418;SDS011;6273;52.312;9.178;2022-07-09T14:24:08;1.00;;;0.90;;
12418;SDS011;6273;52.312;9.178;2022-07-09T14:26:34;2.10;;;1.20;;
12418;SDS011;6273;52.312;9.178;2022-07-09T14:29:00;1.50;;;1.40;;
12418;SDS011;6273;52.312;9.178;2022-07-09T14:31:26;2.43;;;1.30;;
12418;SDS011;6273;52.312;9.178;2022-07-09T14:33:52;2.63;;;1.20;;
12418;SDS011;6273;52.312;9.178;2022-07-09T14:36:19;5.30;;;2.00;;
12418;SDS011;6273;52.312;9.178;2022-07-09T14:38:44;4.10;;;1.23;;
12418;SDS011;6273;52.312;9.178;2022-07-09T14:41:10;4.13;;;1.30;;
12418;SDS011;6273;52.312;9.178;2022-07-09T14:43:36;2.37;;;1.50;;
12418;SDS011;6273;52.312;9.178;2022-07-09T14:46:05;6.20;;;1.20;;
12418;SDS011;6273;52.312;9.178;2022-07-09T14:48:31;1.43;;;0.97;;
12418;SDS011;6273;52.312;9.178;2022-07-09T14:50:57;1.97;;;1.13;;
12418;SDS011;6273;52.312;9.178;2022-07-09T14:53:23;4.40;;;1.40;;
12418;SDS011;6273;52.312;9.178;2022-07-09T14:55:48;3.67;;;1.63;;
12418;SDS011;6273;52.312;9.178;2022-07-09T14:58:14;1.17;;;1.00;;
12418;SDS011;6273;52.312;9.178;2022-07-09T15:00:40;6.80;;;1.40;;
12418;SDS011;6273;52.312;9.178;2022-07-09T15:03:05;1.50;;;1.23;;
12418;SDS011;6273;52.312;9.178;2022-07-09T15:05:31;1.43;;;1.20;;
12418;SDS011;6273;52.312;9.178;2022-07-09T15:07:56;4.27;;;1.33;;